Allen's Hourly Summary for Thursday, May 10, 2018
Hour Temp
(f)
RH
(%)
Solar Rad.
(MJ/m2)
Rainfall
(in)
Wind
(mph)
5/10/2018 12:00 AM 71 55 0 0 1.77
5/10/2018 1:00 AM 69 53 0 0 0.85
5/10/2018 2:00 AM 71 47 0 0 2.5
5/10/2018 3:00 AM 70 50 0 0 2.27
5/10/2018 4:00 AM 67 55 0 0 1.31
5/10/2018 5:00 AM 65 60 0 0 0.85
5/10/2018 6:00 AM 63 63 0 0 0.38
5/10/2018 7:00 AM 62 69 0.02 0 0.92
5/10/2018 8:00 AM 65 75 0.51 0 2.21
5/10/2018 9:00 AM 69 67 1.23 0 2.59
5/10/2018 10:00 AM 73 56 1.97 0 1.94
5/10/2018 11:00 AM 76 49 2.67 0 1.83
5/10/2018 12:00 PM 78 41 3.12 0 3.38
5/10/2018 1:00 PM 79 38 3.25 0 4.95
5/10/2018 2:00 PM 81 36 3.3 0 4.61
5/10/2018 3:00 PM 81 37 3.29 0 4.43
5/10/2018 4:00 PM 82 38 2.8 0 4.84
5/10/2018 5:00 PM 82 35 2.04 0 5.04
5/10/2018 6:00 PM 81 38 1.18 0 5.58
5/10/2018 7:00 PM 80 41 0.7 0 5.18
5/10/2018 8:00 PM 79 46 0.1 0 4.53
5/10/2018 9:00 PM 77 48 0.01 0 4.41
5/10/2018 10:00 PM 75 48 0 0 3.66
5/10/2018 11:00 PM 74 53 0 0 3.1
Data Summary 73 49 26.19 0.00 3.05